sensor_id;sensor_type;location;lat;lon;timestamp;pressure;altitude;pressure_sealevel;temperature
12854;BMP180;6495;51.808;7.478;2023-12-20T00:02:30;100812.00;;;8.20
12854;BMP180;6495;51.808;7.478;2023-12-20T00:04:59;100817.00;;;8.30
12854;BMP180;6495;51.808;7.478;2023-12-20T00:07:26;100816.00;;;8.20
12854;BMP180;6495;51.808;7.478;2023-12-20T00:09:55;100816.00;;;8.20
12854;BMP180;6495;51.808;7.478;2023-12-20T00:12:25;100818.00;;;8.20
12854;BMP180;6495;51.808;7.478;2023-12-20T00:14:53;100823.00;;;8.20
12854;BMP180;6495;51.808;7.478;2023-12-20T00:17:22;100830.00;;;8.20
12854;BMP180;6495;51.808;7.478;2023-12-20T00:19:50;100839.00;;;8.20
12854;BMP180;6495;51.808;7.478;2023-12-20T00:22:19;100836.00;;;8.20
12854;BMP180;6495;51.808;7.478;2023-12-20T00:24:47;100839.00;;;8.20
12854;BMP180;6495;51.808;7.478;2023-12-20T00:27:16;100844.00;;;8.20
12854;BMP180;6495;51.808;7.478;2023-12-20T00:29:45;100845.00;;;8.20
12854;BMP180;6495;51.808;7.478;2023-12-20T00:32:17;100844.00;;;8.10
12854;BMP180;6495;51.808;7.478;2023-12-20T00:34:46;100845.00;;;8.10
12854;BMP180;6495;51.808;7.478;2023-12-20T00:37:15;100847.00;;;8.10
12854;BMP180;6495;51.808;7.478;2023-12-20T00:39:43;100847.00;;;8.00
12854;BMP180;6495;51.808;7.478;2023-12-20T00:42:12;100854.00;;;8.00
12854;BMP180;6495;51.808;7.478;2023-12-20T00:44:40;100845.00;;;7.90
12854;BMP180;6495;51.808;7.478;2023-12-20T00:47:10;100843.00;;;7.90
12854;BMP180;6495;51.808;7.478;2023-12-20T00:49:39;100848.00;;;7.90
12854;BMP180;6495;51.808;7.478;2023-12-20T00:52:07;100858.00;;;7.90
12854;BMP180;6495;51.808;7.478;2023-12-20T00:54:35;100855.00;;;7.80
12854;BMP180;6495;51.808;7.478;2023-12-20T00:57:04;100860.00;;;7.90
12854;BMP180;6495;51.808;7.478;2023-12-20T00:59:33;100852.00;;;7.80
12854;BMP180;6495;51.808;7.478;2023-12-20T01:02:02;100851.00;;;7.80
12854;BMP180;6495;51.808;7.478;2023-12-20T01:04:32;100852.00;;;7.80
12854;BMP180;6495;51.808;7.478;2023-12-20T01:07:00;100853.00;;;7.80
12854;BMP180;6495;51.808;7.478;2023-12-20T01:09:29;100858.00;;;7.70
12854;BMP180;6495;51.808;7.478;2023-12-20T01:11:57;100866.00;;;7.80
12854;BMP180;6495;51.808;7.478;2023-12-20T01:14:26;100851.00;;;7.70
12854;BMP180;6495;51.808;7.478;2023-12-20T01:16:54;100855.00;;;7.80
12854;BMP180;6495;51.808;7.478;2023-12-20T01:19:24;100859.00;;;7.80
12854;BMP180;6495;51.808;7.478;2023-12-20T01:21:55;100861.00;;;7.80
12854;BMP180;6495;51.808;7.478;2023-12-20T01:24:25;100850.00;;;7.80
12854;BMP180;6495;51.808;7.478;2023-12-20T01:26:53;100857.00;;;7.80
12854;BMP180;6495;51.808;7.478;2023-12-20T01:29:22;100861.00;;;7.80
12854;BMP180;6495;51.808;7.478;2023-12-20T01:31:50;100858.00;;;7.70
12854;BMP180;6495;51.808;7.478;2023-12-20T01:34:18;100864.00;;;7.70
12854;BMP180;6495;51.808;7.478;2023-12-20T01:36:47;100864.00;;;7.70
12854;BMP180;6495;51.808;7.478;2023-12-20T01:39:17;100869.00;;;7.70
12854;BMP180;6495;51.808;7.478;2023-12-20T01:41:56;100867.00;;;7.70
12854;BMP180;6495;51.808;7.478;2023-12-20T01:44:24;100859.00;;;7.60
12854;BMP180;6495;51.808;7.478;2023-12-20T01:46:54;100866.00;;;7.60
12854;BMP180;6495;51.808;7.478;2023-12-20T01:49:23;100861.00;;;7.60
12854;BMP180;6495;51.808;7.478;2023-12-20T01:51:52;100864.00;;;7.60
12854;BMP180;6495;51.808;7.478;2023-12-20T01:54:22;100857.00;;;7.50
12854;BMP180;6495;51.808;7.478;2023-12-20T01:56:51;100847.00;;;7.50
12854;BMP180;6495;51.808;7.478;2023-12-20T01:59:21;100857.00;;;7.50
12854;BMP180;6495;51.808;7.478;2023-12-20T02:01:50;100860.00;;;7.50
12854;BMP180;6495;51.808;7.478;2023-12-20T02:04:18;100846.00;;;7.50
12854;BMP180;6495;51.808;7.478;2023-12-20T02:06:48;100848.00;;;7.50
12854;BMP180;6495;51.808;7.478;2023-12-20T02:09:18;100849.00;;;7.50
12854;BMP180;6495;51.808;7.478;2023-12-20T02:11:49;100860.00;;;7.40
12854;BMP180;6495;51.808;7.478;2023-12-20T02:14:18;100851.00;;;7.40
12854;BMP180;6495;51.808;7.478;2023-12-20T02:16:46;100845.00;;;7.40
12854;BMP180;6495;51.808;7.478;2023-12-20T02:19:15;100861.00;;;7.40
12854;BMP180;6495;51.808;7.478;2023-12-20T02:21:45;100858.00;;;7.40
12854;BMP180;6495;51.808;7.478;2023-12-20T02:24:14;100844.00;;;7.40
12854;BMP180;6495;51.808;7.478;2023-12-20T02:26:42;100848.00;;;7.40
12854;BMP180;6495;51.808;7.478;2023-12-20T02:29:13;100847.00;;;7.30
12854;BMP180;6495;51.808;7.478;2023-12-20T02:31:41;100838.00;;;7.30
12854;BMP180;6495;51.808;7.478;2023-12-20T02:34:10;100847.00;;;7.30
12854;BMP180;6495;51.808;7.478;2023-12-20T02:36:38;100847.00;;;7.30
12854;BMP180;6495;51.808;7.478;2023-12-20T02:39:08;100846.00;;;7.30
12854;BMP180;6495;51.808;7.478;2023-12-20T02:41:37;100850.00;;;7.20
12854;BMP180;6495;51.808;7.478;2023-12-20T02:44:05;100852.00;;;7.30
12854;BMP180;6495;51.808;7.478;2023-12-20T02:46:33;100838.00;;;7.20
12854;BMP180;6495;51.808;7.478;2023-12-20T02:49:02;100848.00;;;7.20
12854;BMP180;6495;51.808;7.478;2023-12-20T02:51:30;100843.00;;;7.20
12854;BMP180;6495;51.808;7.478;2023-12-20T02:53:58;100837.00;;;7.20
12854;BMP180;6495;51.808;7.478;2023-12-20T02:56:28;100835.00;;;7.20
12854;BMP180;6495;51.808;7.478;2023-12-20T02:58:56;100849.00;;;7.10
12854;BMP180;6495;51.808;7.478;2023-12-20T03:01:25;100844.00;;;7.10
12854;BMP180;6495;51.808;7.478;2023-12-20T03:03:53;100849.00;;;7.10
12854;BMP180;6495;51.808;7.478;2023-12-20T03:06:22;100846.00;;;7.10
12854;BMP180;6495;51.808;7.478;2023-12-20T03:08:50;100847.00;;;7.10
12854;BMP180;6495;51.808;7.478;2023-12-20T03:11:22;100831.00;;;7.10
12854;BMP180;6495;51.808;7.478;2023-12-20T03:13:55;100843.00;;;7.10
12854;BMP180;6495;51.808;7.478;2023-12-20T03:16:24;100831.00;;;7.10
12854;BMP180;6495;51.808;7.478;2023-12-20T03:18:52;100823.00;;;7.00
12854;BMP180;6495;51.808;7.478;2023-12-20T03:21:21;100834.00;;;7.00
12854;BMP180;6495;51.808;7.478;2023-12-20T03:23:49;100844.00;;;7.00
12854;BMP180;6495;51.808;7.478;2023-12-20T03:26:17;100849.00;;;7.00
12854;BMP180;6495;51.808;7.478;2023-12-20T03:28:46;100827.00;;;6.90
12854;BMP180;6495;51.808;7.478;2023-12-20T03:31:17;100837.00;;;6.90
12854;BMP180;6495;51.808;7.478;2023-12-20T03:33:45;100831.00;;;6.90
12854;BMP180;6495;51.808;7.478;2023-12-20T03:36:14;100831.00;;;6.90
12854;BMP180;6495;51.808;7.478;2023-12-20T03:38:42;100820.00;;;6.90
12854;BMP180;6495;51.808;7.478;2023-12-20T03:41:11;100816.00;;;6.90
12854;BMP180;6495;51.808;7.478;2023-12-20T03:43:39;100822.00;;;6.90
12854;BMP180;6495;51.808;7.478;2023-12-20T03:46:08;100802.00;;;6.90
12854;BMP180;6495;51.808;7.478;2023-12-20T03:48:38;100808.00;;;6.90
12854;BMP180;6495;51.808;7.478;2023-12-20T03:51:06;100805.00;;;6.80
12854;BMP180;6495;51.808;7.478;2023-12-20T03:53:35;100818.00;;;6.80
12854;BMP180;6495;51.808;7.478;2023-12-20T03:56:03;100818.00;;;6.80
12854;BMP180;6495;51.808;7.478;2023-12-20T03:58:32;100817.00;;;6.80
12854;BMP180;6495;51.808;7.478;2023-12-20T04:01:01;100816.00;;;6.80
12854;BMP180;6495;51.808;7.478;2023-12-20T04:03:29;100797.00;;;6.80
12854;BMP180;6495;51.808;7.478;2023-12-20T04:05:59;100811.00;;;6.80
12854;BMP180;6495;51.808;7.478;2023-12-20T04:08:28;100798.00;;;6.70
12854;BMP180;6495;51.808;7.478;2023-12-20T04:10:56;100804.00;;;6.70
12854;BMP180;6495;51.808;7.478;2023-12-20T04:13:24;100806.00;;;6.70
12854;BMP180;6495;51.808;7.478;2023-12-20T04:15:53;100801.00;;;6.70
12854;BMP180;6495;51.808;7.478;2023-12-20T04:18:21;100812.00;;;6.70
12854;BMP180;6495;51.808;7.478;2023-12-20T04:20:50;100806.00;;;6.70
12854;BMP180;6495;51.808;7.478;2023-12-20T04:23:20;100813.00;;;6.70
12854;BMP180;6495;51.808;7.478;2023-12-20T04:25:48;100806.00;;;6.70
12854;BMP180;6495;51.808;7.478;2023-12-20T04:28:16;100799.00;;;6.70
12854;BMP180;6495;51.808;7.478;2023-12-20T04:30:45;100805.00;;;6.70
12854;BMP180;6495;51.808;7.478;2023-12-20T04:33:13;100805.00;;;6.60
12854;BMP180;6495;51.808;7.478;2023-12-20T04:35:42;100815.00;;;6.60
12854;BMP180;6495;51.808;7.478;2023-12-20T04:38:12;100817.00;;;6.60
12854;BMP180;6495;51.808;7.478;2023-12-20T04:40:42;100813.00;;;6.60
12854;BMP180;6495;51.808;7.478;2023-12-20T04:43:11;100813.00;;;6.60
12854;BMP180;6495;51.808;7.478;2023-12-20T04:45:39;100830.00;;;6.60
12854;BMP180;6495;51.808;7.478;2023-12-20T04:48:08;100825.00;;;6.60
12854;BMP180;6495;51.808;7.478;2023-12-20T04:50:36;100812.00;;;6.60
12854;BMP180;6495;51.808;7.478;2023-12-20T04:53:04;100823.00;;;6.60
12854;BMP180;6495;51.808;7.478;2023-12-20T04:55:34;100823.00;;;6.50
12854;BMP180;6495;51.808;7.478;2023-12-20T04:58:05;100818.00;;;6.50
12854;BMP180;6495;51.808;7.478;2023-12-20T05:00:33;100812.00;;;6.50
12854;BMP180;6495;51.808;7.478;2023-12-20T05:03:02;100804.00;;;6.50
12854;BMP180;6495;51.808;7.478;2023-12-20T05:05:30;100804.00;;;6.50
12854;BMP180;6495;51.808;7.478;2023-12-20T05:07:59;100802.00;;;6.50
12854;BMP180;6495;51.808;7.478;2023-12-20T05:10:28;100807.00;;;6.50
12854;BMP180;6495;51.808;7.478;2023-12-20T05:12:56;100815.00;;;6.50
12854;BMP180;6495;51.808;7.478;2023-12-20T05:15:26;100801.00;;;6.50
12854;BMP180;6495;51.808;7.478;2023-12-20T05:17:54;100798.00;;;6.50
12854;BMP180;6495;51.808;7.478;2023-12-20T05:20:33;100802.00;;;6.50
12854;BMP180;6495;51.808;7.478;2023-12-20T05:23:05;100802.00;;;6.50
12854;BMP180;6495;51.808;7.478;2023-12-20T05:25:38;100804.00;;;6.50
12854;BMP180;6495;51.808;7.478;2023-12-20T05:28:06;100792.00;;;6.50
12854;BMP180;6495;51.808;7.478;2023-12-20T05:30:42;100795.00;;;6.50
12854;BMP180;6495;51.808;7.478;2023-12-20T05:33:11;100802.00;;;6.50
12854;BMP180;6495;51.808;7.478;2023-12-20T05:35:39;100797.00;;;6.50
12854;BMP180;6495;51.808;7.478;2023-12-20T05:38:08;100791.00;;;6.50
12854;BMP180;6495;51.808;7.478;2023-12-20T05:40:36;100785.00;;;6.50
12854;BMP180;6495;51.808;7.478;2023-12-20T05:43:05;100788.00;;;6.50
12854;BMP180;6495;51.808;7.478;2023-12-20T05:45:36;100794.00;;;6.50
12854;BMP180;6495;51.808;7.478;2023-12-20T05:48:07;100788.00;;;6.50
12854;BMP180;6495;51.808;7.478;2023-12-20T05:50:35;100800.00;;;6.50
12854;BMP180;6495;51.808;7.478;2023-12-20T05:53:04;100795.00;;;6.50
12854;BMP180;6495;51.808;7.478;2023-12-20T05:55:33;100813.00;;;6.50
12854;BMP180;6495;51.808;7.478;2023-12-20T05:58:01;100799.00;;;6.50
12854;BMP180;6495;51.808;7.478;2023-12-20T06:00:30;100795.00;;;6.50
12854;BMP180;6495;51.808;7.478;2023-12-20T06:02:59;100793.00;;;6.50
12854;BMP180;6495;51.808;7.478;2023-12-20T06:05:29;100798.00;;;6.50
12854;BMP180;6495;51.808;7.478;2023-12-20T06:07:58;100795.00;;;6.50
12854;BMP180;6495;51.808;7.478;2023-12-20T06:10:30;100790.00;;;6.50
12854;BMP180;6495;51.808;7.478;2023-12-20T06:12:58;100799.00;;;6.50
12854;BMP180;6495;51.808;7.478;2023-12-20T06:15:30;100798.00;;;6.50
12854;BMP180;6495;51.808;7.478;2023-12-20T06:17:58;100791.00;;;6.50
12854;BMP180;6495;51.808;7.478;2023-12-20T06:20:38;100797.00;;;6.50
12854;BMP180;6495;51.808;7.478;2023-12-20T06:23:07;100788.00;;;6.50
12854;BMP180;6495;51.808;7.478;2023-12-20T06:25:35;100797.00;;;6.50
12854;BMP180;6495;51.808;7.478;2023-12-20T06:28:05;100791.00;;;6.50
12854;BMP180;6495;51.808;7.478;2023-12-20T06:30:37;100786.00;;;6.50
12854;BMP180;6495;51.808;7.478;2023-12-20T06:33:05;100805.00;;;6.50
12854;BMP180;6495;51.808;7.478;2023-12-20T06:35:38;100791.00;;;6.50
12854;BMP180;6495;51.808;7.478;2023-12-20T06:38:06;100796.00;;;6.50
12854;BMP180;6495;51.808;7.478;2023-12-20T06:40:38;100791.00;;;6.50
12854;BMP180;6495;51.808;7.478;2023-12-20T06:43:07;100795.00;;;6.60
12854;BMP180;6495;51.808;7.478;2023-12-20T06:45:47;100805.00;;;6.60
12854;BMP180;6495;51.808;7.478;2023-12-20T06:48:15;100798.00;;;6.60
12854;BMP180;6495;51.808;7.478;2023-12-20T06:50:47;100789.00;;;6.60
12854;BMP180;6495;51.808;7.478;2023-12-20T06:53:15;100796.00;;;6.60
12854;BMP180;6495;51.808;7.478;2023-12-20T06:55:44;100808.00;;;6.60
12854;BMP180;6495;51.808;7.478;2023-12-20T06:58:12;100808.00;;;6.60
12854;BMP180;6495;51.808;7.478;2023-12-20T07:00:41;100793.00;;;6.60
12854;BMP180;6495;51.808;7.478;2023-12-20T07:03:12;100791.00;;;6.60
12854;BMP180;6495;51.808;7.478;2023-12-20T07:05:40;100797.00;;;6.60
12854;BMP180;6495;51.808;7.478;2023-12-20T07:08:10;100798.00;;;6.70
12854;BMP180;6495;51.808;7.478;2023-12-20T07:10:45;100792.00;;;6.70
12854;BMP180;6495;51.808;7.478;2023-12-20T07:13:16;100781.00;;;6.70
12854;BMP180;6495;51.808;7.478;2023-12-20T07:15:44;100787.00;;;6.70
12854;BMP180;6495;51.808;7.478;2023-12-20T07:18:12;100793.00;;;6.70
12854;BMP180;6495;51.808;7.478;2023-12-20T07:20:41;100794.00;;;6.70
12854;BMP180;6495;51.808;7.478;2023-12-20T07:23:11;100789.00;;;6.70
12854;BMP180;6495;51.808;7.478;2023-12-20T07:25:40;100788.00;;;6.70
12854;BMP180;6495;51.808;7.478;2023-12-20T07:28:08;100803.00;;;6.70
12854;BMP180;6495;51.808;7.478;2023-12-20T07:30:40;100792.00;;;6.70
12854;BMP180;6495;51.808;7.478;2023-12-20T07:33:09;100795.00;;;6.70
12854;BMP180;6495;51.808;7.478;2023-12-20T07:35:39;100804.00;;;6.70
12854;BMP180;6495;51.808;7.478;2023-12-20T07:38:08;100794.00;;;6.70
12854;BMP180;6495;51.808;7.478;2023-12-20T07:40:38;100796.00;;;6.70
12854;BMP180;6495;51.808;7.478;2023-12-20T07:43:11;100798.00;;;6.70
12854;BMP180;6495;51.808;7.478;2023-12-20T07:45:41;100803.00;;;6.70
12854;BMP180;6495;51.808;7.478;2023-12-20T07:48:12;100796.00;;;6.80
12854;BMP180;6495;51.808;7.478;2023-12-20T07:50:41;100785.00;;;6.70
12854;BMP180;6495;51.808;7.478;2023-12-20T07:53:10;100788.00;;;6.80
12854;BMP180;6495;51.808;7.478;2023-12-20T07:55:40;100799.00;;;6.70
12854;BMP180;6495;51.808;7.478;2023-12-20T07:58:10;100787.00;;;6.70
12854;BMP180;6495;51.808;7.478;2023-12-20T08:00:38;100789.00;;;6.80
12854;BMP180;6495;51.808;7.478;2023-12-20T08:03:07;100780.00;;;6.80
12854;BMP180;6495;51.808;7.478;2023-12-20T08:05:36;100782.00;;;6.80
12854;BMP180;6495;51.808;7.478;2023-12-20T08:08:07;100782.00;;;6.80
12854;BMP180;6495;51.808;7.478;2023-12-20T08:10:36;100780.00;;;6.80
12854;BMP180;6495;51.808;7.478;2023-12-20T08:13:06;100771.00;;;6.80
12854;BMP180;6495;51.808;7.478;2023-12-20T08:15:34;100774.00;;;6.80
12854;BMP180;6495;51.808;7.478;2023-12-20T08:18:05;100782.00;;;6.80
12854;BMP180;6495;51.808;7.478;2023-12-20T08:20:33;100781.00;;;6.80
12854;BMP180;6495;51.808;7.478;2023-12-20T08:23:07;100786.00;;;6.80
12854;BMP180;6495;51.808;7.478;2023-12-20T08:25:35;100783.00;;;6.80
12854;BMP180;6495;51.808;7.478;2023-12-20T08:28:06;100791.00;;;6.90
12854;BMP180;6495;51.808;7.478;2023-12-20T08:30:34;100781.00;;;6.90
12854;BMP180;6495;51.808;7.478;2023-12-20T08:33:04;100784.00;;;6.90
12854;BMP180;6495;51.808;7.478;2023-12-20T08:35:32;100789.00;;;6.90
12854;BMP180;6495;51.808;7.478;2023-12-20T08:38:01;100785.00;;;6.90
12854;BMP180;6495;51.808;7.478;2023-12-20T08:40:29;100806.00;;;7.00
12854;BMP180;6495;51.808;7.478;2023-12-20T08:42:58;100804.00;;;7.00
12854;BMP180;6495;51.808;7.478;2023-12-20T08:45:28;100809.00;;;7.00
12854;BMP180;6495;51.808;7.478;2023-12-20T08:47:56;100798.00;;;7.00
12854;BMP180;6495;51.808;7.478;2023-12-20T08:50:31;100793.00;;;6.90
12854;BMP180;6495;51.808;7.478;2023-12-20T08:53:00;100786.00;;;6.90
12854;BMP180;6495;51.808;7.478;2023-12-20T08:55:28;100776.00;;;6.90
12854;BMP180;6495;51.808;7.478;2023-12-20T08:57:59;100781.00;;;6.90
12854;BMP180;6495;51.808;7.478;2023-12-20T09:00:31;100763.00;;;6.90
12854;BMP180;6495;51.808;7.478;2023-12-20T09:02:59;100765.00;;;6.90
12854;BMP180;6495;51.808;7.478;2023-12-20T09:05:28;100769.00;;;6.90
12854;BMP180;6495;51.808;7.478;2023-12-20T09:07:57;100768.00;;;7.00
12854;BMP180;6495;51.808;7.478;2023-12-20T09:10:25;100764.00;;;7.00
12854;BMP180;6495;51.808;7.478;2023-12-20T09:12:54;100757.00;;;7.00
12854;BMP180;6495;51.808;7.478;2023-12-20T09:15:24;100756.00;;;7.00
12854;BMP180;6495;51.808;7.478;2023-12-20T09:17:54;100749.00;;;7.00
12854;BMP180;6495;51.808;7.478;2023-12-20T09:20:22;100740.00;;;7.00
12854;BMP180;6495;51.808;7.478;2023-12-20T09:22:51;100739.00;;;7.00
12854;BMP180;6495;51.808;7.478;2023-12-20T09:25:20;100742.00;;;7.00
12854;BMP180;6495;51.808;7.478;2023-12-20T09:27:49;100740.00;;;7.00
12854;BMP180;6495;51.808;7.478;2023-12-20T09:30:18;100733.00;;;7.10
12854;BMP180;6495;51.808;7.478;2023-12-20T09:32:55;100747.00;;;7.10
12854;BMP180;6495;51.808;7.478;2023-12-20T09:35:24;100741.00;;;7.10
12854;BMP180;6495;51.808;7.478;2023-12-20T09:37:54;100739.00;;;7.10
12854;BMP180;6495;51.808;7.478;2023-12-20T09:40:26;100747.00;;;7.10
12854;BMP180;6495;51.808;7.478;2023-12-20T09:42:58;100744.00;;;7.10
12854;BMP180;6495;51.808;7.478;2023-12-20T09:45:26;100739.00;;;7.10
12854;BMP180;6495;51.808;7.478;2023-12-20T09:47:58;100741.00;;;7.10
12854;BMP180;6495;51.808;7.478;2023-12-20T09:50:27;100743.00;;;7.10
12854;BMP180;6495;51.808;7.478;2023-12-20T09:52:58;100746.00;;;7.10
12854;BMP180;6495;51.808;7.478;2023-12-20T09:55:27;100743.00;;;7.10
12854;BMP180;6495;51.808;7.478;2023-12-20T09:57:57;100761.00;;;7.10
12854;BMP180;6495;51.808;7.478;2023-12-20T10:00:25;100753.00;;;7.20
12854;BMP180;6495;51.808;7.478;2023-12-20T10:02:59;100746.00;;;7.20
12854;BMP180;6495;51.808;7.478;2023-12-20T10:05:30;100749.00;;;7.20
12854;BMP180;6495;51.808;7.478;2023-12-20T10:08:00;100760.00;;;7.20
12854;BMP180;6495;51.808;7.478;2023-12-20T10:10:29;100753.00;;;7.20
12854;BMP180;6495;51.808;7.478;2023-12-20T10:13:12;100761.00;;;7.20
12854;BMP180;6495;51.808;7.478;2023-12-20T10:15:41;100762.00;;;7.20
12854;BMP180;6495;51.808;7.478;2023-12-20T10:18:12;100768.00;;;7.20
12854;BMP180;6495;51.808;7.478;2023-12-20T10:20:41;100768.00;;;7.20
12854;BMP180;6495;51.808;7.478;2023-12-20T10:23:16;100760.00;;;7.20
12854;BMP180;6495;51.808;7.478;2023-12-20T10:25:56;100765.00;;;7.20
12854;BMP180;6495;51.808;7.478;2023-12-20T10:28:34;100752.00;;;7.20
12854;BMP180;6495;51.808;7.478;2023-12-20T10:31:03;100762.00;;;7.20
12854;BMP180;6495;51.808;7.478;2023-12-20T10:33:33;100757.00;;;7.20
12854;BMP180;6495;51.808;7.478;2023-12-20T10:36:02;100749.00;;;7.20
12854;BMP180;6495;51.808;7.478;2023-12-20T10:38:31;100747.00;;;7.20
12854;BMP180;6495;51.808;7.478;2023-12-20T10:41:04;100755.00;;;7.20
12854;BMP180;6495;51.808;7.478;2023-12-20T10:43:34;100745.00;;;7.20
12854;BMP180;6495;51.808;7.478;2023-12-20T10:46:05;100751.00;;;7.20
12854;BMP180;6495;51.808;7.478;2023-12-20T10:48:35;100745.00;;;7.20
12854;BMP180;6495;51.808;7.478;2023-12-20T10:51:06;100745.00;;;7.20
12854;BMP180;6495;51.808;7.478;2023-12-20T10:53:40;100741.00;;;7.20
12854;BMP180;6495;51.808;7.478;2023-12-20T10:56:17;100741.00;;;7.30
12854;BMP180;6495;51.808;7.478;2023-12-20T10:58:51;100735.00;;;7.30
12854;BMP180;6495;51.808;7.478;2023-12-20T11:01:20;100724.00;;;7.30
12854;BMP180;6495;51.808;7.478;2023-12-20T11:03:53;100740.00;;;7.20
12854;BMP180;6495;51.808;7.478;2023-12-20T11:06:33;100728.00;;;7.20
12854;BMP180;6495;51.808;7.478;2023-12-20T11:09:20;100742.00;;;7.20
12854;BMP180;6495;51.808;7.478;2023-12-20T11:12:01;100737.00;;;7.20
12854;BMP180;6495;51.808;7.478;2023-12-20T11:14:40;100741.00;;;7.20
12854;BMP180;6495;51.808;7.478;2023-12-20T11:17:11;100750.00;;;7.20
12854;BMP180;6495;51.808;7.478;2023-12-20T11:20:06;100745.00;;;7.20
12854;BMP180;6495;51.808;7.478;2023-12-20T11:22:35;100745.00;;;7.20
12854;BMP180;6495;51.808;7.478;2023-12-20T11:25:20;100735.00;;;7.20
12854;BMP180;6495;51.808;7.478;2023-12-20T11:28:08;100716.00;;;7.20
12854;BMP180;6495;51.808;7.478;2023-12-20T11:30:55;100709.00;;;7.20
12854;BMP180;6495;51.808;7.478;2023-12-20T11:33:38;100711.00;;;7.20
12854;BMP180;6495;51.808;7.478;2023-12-20T11:36:18;100712.00;;;7.30
12854;BMP180;6495;51.808;7.478;2023-12-20T11:38:56;100703.00;;;7.30
12854;BMP180;6495;51.808;7.478;2023-12-20T11:41:26;100702.00;;;7.30
12854;BMP180;6495;51.808;7.478;2023-12-20T11:43:56;100701.00;;;7.30
12854;BMP180;6495;51.808;7.478;2023-12-20T11:46:25;100699.00;;;7.40
12854;BMP180;6495;51.808;7.478;2023-12-20T11:49:00;100684.00;;;7.40
12854;BMP180;6495;51.808;7.478;2023-12-20T11:51:31;100676.00;;;7.40
12854;BMP180;6495;51.808;7.478;2023-12-20T11:54:02;100678.00;;;7.40
12854;BMP180;6495;51.808;7.478;2023-12-20T11:56:31;100685.00;;;7.40
12854;BMP180;6495;51.808;7.478;2023-12-20T11:59:01;100690.00;;;7.40
12854;BMP180;6495;51.808;7.478;2023-12-20T12:01:50;100675.00;;;7.40
12854;BMP180;6495;51.808;7.478;2023-12-20T12:04:26;100674.00;;;7.40
12854;BMP180;6495;51.808;7.478;2023-12-20T12:06:57;100662.00;;;7.40
12854;BMP180;6495;51.808;7.478;2023-12-20T12:09:25;100659.00;;;7.40
12854;BMP180;6495;51.808;7.478;2023-12-20T12:11:54;100655.00;;;7.40
12854;BMP180;6495;51.808;7.478;2023-12-20T12:14:23;100642.00;;;7.40
12854;BMP180;6495;51.808;7.478;2023-12-20T12:16:52;100633.00;;;7.50
12854;BMP180;6495;51.808;7.478;2023-12-20T12:19:25;100627.00;;;7.40
12854;BMP180;6495;51.808;7.478;2023-12-20T12:22:06;100641.00;;;7.50
12854;BMP180;6495;51.808;7.478;2023-12-20T12:24:41;100636.00;;;7.50
12854;BMP180;6495;51.808;7.478;2023-12-20T12:27:10;100632.00;;;7.50
12854;BMP180;6495;51.808;7.478;2023-12-20T12:29:38;100634.00;;;7.50
12854;BMP180;6495;51.808;7.478;2023-12-20T12:32:08;100635.00;;;7.60
12854;BMP180;6495;51.808;7.478;2023-12-20T12:34:37;100641.00;;;7.60
12854;BMP180;6495;51.808;7.478;2023-12-20T12:37:07;100650.00;;;7.70
12854;BMP180;6495;51.808;7.478;2023-12-20T12:39:35;100636.00;;;7.70
12854;BMP180;6495;51.808;7.478;2023-12-20T12:42:04;100649.00;;;7.70
12854;BMP180;6495;51.808;7.478;2023-12-20T12:44:32;100639.00;;;7.70
12854;BMP180;6495;51.808;7.478;2023-12-20T12:47:01;100635.00;;;7.70
12854;BMP180;6495;51.808;7.478;2023-12-20T12:49:30;100649.00;;;7.70
12854;BMP180;6495;51.808;7.478;2023-12-20T12:51:59;100637.00;;;7.80
12854;BMP180;6495;51.808;7.478;2023-12-20T12:54:28;100626.00;;;7.80
12854;BMP180;6495;51.808;7.478;2023-12-20T12:56:56;100639.00;;;7.80
12854;BMP180;6495;51.808;7.478;2023-12-20T12:59:25;100636.00;;;7.80
12854;BMP180;6495;51.808;7.478;2023-12-20T13:01:54;100632.00;;;7.80
12854;BMP180;6495;51.808;7.478;2023-12-20T13:04:22;100625.00;;;7.90
12854;BMP180;6495;51.808;7.478;2023-12-20T13:06:51;100615.00;;;7.90
12854;BMP180;6495;51.808;7.478;2023-12-20T13:09:20;100620.00;;;7.90
12854;BMP180;6495;51.808;7.478;2023-12-20T13:11:49;100620.00;;;7.90
12854;BMP180;6495;51.808;7.478;2023-12-20T13:14:18;100610.00;;;7.90
12854;BMP180;6495;51.808;7.478;2023-12-20T13:16:46;100613.00;;;7.90
12854;BMP180;6495;51.808;7.478;2023-12-20T13:19:15;100609.00;;;8.00
12854;BMP180;6495;51.808;7.478;2023-12-20T13:21:43;100609.00;;;7.90
12854;BMP180;6495;51.808;7.478;2023-12-20T13:24:12;100591.00;;;7.90
12854;BMP180;6495;51.808;7.478;2023-12-20T13:26:40;100599.00;;;7.90
12854;BMP180;6495;51.808;7.478;2023-12-20T13:29:10;100581.00;;;8.00
12854;BMP180;6495;51.808;7.478;2023-12-20T13:31:39;100591.00;;;8.00
12854;BMP180;6495;51.808;7.478;2023-12-20T13:34:08;100587.00;;;7.90
12854;BMP180;6495;51.808;7.478;2023-12-20T13:36:37;100579.00;;;8.00
12854;BMP180;6495;51.808;7.478;2023-12-20T13:39:05;100583.00;;;8.00
12854;BMP180;6495;51.808;7.478;2023-12-20T13:41:34;100590.00;;;8.00
12854;BMP180;6495;51.808;7.478;2023-12-20T13:44:02;100588.00;;;8.00
12854;BMP180;6495;51.808;7.478;2023-12-20T13:46:32;100569.00;;;8.00
12854;BMP180;6495;51.808;7.478;2023-12-20T13:49:02;100569.00;;;8.00
12854;BMP180;6495;51.808;7.478;2023-12-20T13:51:32;100569.00;;;8.00
12854;BMP180;6495;51.808;7.478;2023-12-20T13:54:01;100565.00;;;8.00
12854;BMP180;6495;51.808;7.478;2023-12-20T13:56:29;100571.00;;;8.00
12854;BMP180;6495;51.808;7.478;2023-12-20T13:59:02;100570.00;;;8.00
12854;BMP180;6495;51.808;7.478;2023-12-20T14:01:32;100570.00;;;8.00
12854;BMP180;6495;51.808;7.478;2023-12-20T14:04:01;100575.00;;;8.00
12854;BMP180;6495;51.808;7.478;2023-12-20T14:06:30;100586.00;;;8.00
12854;BMP180;6495;51.808;7.478;2023-12-20T14:08:58;100572.00;;;7.90
12854;BMP180;6495;51.808;7.478;2023-12-20T14:11:27;100566.00;;;8.00
12854;BMP180;6495;51.808;7.478;2023-12-20T14:13:56;100568.00;;;8.00
12854;BMP180;6495;51.808;7.478;2023-12-20T14:16:25;100564.00;;;8.00
12854;BMP180;6495;51.808;7.478;2023-12-20T14:18:55;100578.00;;;8.00
12854;BMP180;6495;51.808;7.478;2023-12-20T14:21:25;100570.00;;;8.00
12854;BMP180;6495;51.808;7.478;2023-12-20T14:23:53;100567.00;;;8.00
12854;BMP180;6495;51.808;7.478;2023-12-20T14:26:24;100571.00;;;7.90
12854;BMP180;6495;51.808;7.478;2023-12-20T14:28:52;100561.00;;;8.00
12854;BMP180;6495;51.808;7.478;2023-12-20T14:31:21;100566.00;;;8.00
12854;BMP180;6495;51.808;7.478;2023-12-20T14:33:53;100579.00;;;8.00
12854;BMP180;6495;51.808;7.478;2023-12-20T14:36:22;100570.00;;;7.90
12854;BMP180;6495;51.808;7.478;2023-12-20T14:38:50;100572.00;;;7.90